sensor_id;sensor_type;location;lat;lon;timestamp;P1;durP1;ratioP1;P2;durP2;ratioP2
81868;SDS011;71320;52.252;13.382;2023-08-17T00:00:04;4.22;;;1.65;;
81868;SDS011;71320;52.252;13.382;2023-08-17T00:05:09;7.20;;;1.92;;
81868;SDS011;71320;52.252;13.382;2023-08-17T00:10:12;3.88;;;1.70;;
81868;SDS011;71320;52.252;13.382;2023-08-17T00:15:14;2.60;;;1.73;;
81868;SDS011;71320;52.252;13.382;2023-08-17T00:20:16;2.65;;;1.67;;
81868;SDS011;71320;52.252;13.382;2023-08-17T00:25:19;1.92;;;1.67;;
81868;SDS011;71320;52.252;13.382;2023-08-17T00:30:20;3.22;;;1.60;;
81868;SDS011;71320;52.252;13.382;2023-08-17T00:35:22;2.95;;;1.80;;
81868;SDS011;71320;52.252;13.382;2023-08-17T00:40:25;1.75;;;1.40;;
81868;SDS011;71320;52.252;13.382;2023-08-17T00:45:27;4.03;;;1.95;;
81868;SDS011;71320;52.252;13.382;2023-08-17T00:50:28;3.63;;;1.33;;
81868;SDS011;71320;52.252;13.382;2023-08-17T00:55:31;2.95;;;1.50;;
81868;SDS011;71320;52.252;13.382;2023-08-17T01:00:34;4.53;;;1.85;;
81868;SDS011;71320;52.252;13.382;2023-08-17T01:05:37;3.78;;;1.80;;
81868;SDS011;71320;52.252;13.382;2023-08-17T01:10:44;3.17;;;1.70;;
81868;SDS011;71320;52.252;13.382;2023-08-17T01:15:52;2.67;;;1.70;;
81868;SDS011;71320;52.252;13.382;2023-08-17T01:21:00;2.92;;;1.63;;
81868;SDS011;71320;52.252;13.382;2023-08-17T01:26:04;3.42;;;1.88;;
81868;SDS011;71320;52.252;13.382;2023-08-17T01:31:08;3.42;;;1.40;;
81868;SDS011;71320;52.252;13.382;2023-08-17T01:36:17;3.20;;;1.73;;
81868;SDS011;71320;52.252;13.382;2023-08-17T01:41:23;1.95;;;1.50;;
81868;SDS011;71320;52.252;13.382;2023-08-17T01:46:29;2.33;;;1.30;;
81868;SDS011;71320;52.252;13.382;2023-08-17T01:51:32;5.40;;;2.35;;
81868;SDS011;71320;52.252;13.382;2023-08-17T01:56:35;2.55;;;1.48;;
81868;SDS011;71320;52.252;13.382;2023-08-17T02:01:36;2.75;;;1.50;;
81868;SDS011;71320;52.252;13.382;2023-08-17T02:06:38;3.63;;;1.60;;
81868;SDS011;71320;52.252;13.382;2023-08-17T02:11:41;2.90;;;1.42;;
81868;SDS011;71320;52.252;13.382;2023-08-17T02:16:42;2.10;;;1.40;;
81868;SDS011;71320;52.252;13.382;2023-08-17T02:21:45;3.08;;;1.50;;
81868;SDS011;71320;52.252;13.382;2023-08-17T02:26:48;3.55;;;1.33;;
81868;SDS011;71320;52.252;13.382;2023-08-17T02:31:50;4.45;;;1.60;;
81868;SDS011;71320;52.252;13.382;2023-08-17T02:36:51;3.22;;;1.60;;
81868;SDS011;71320;52.252;13.382;2023-08-17T02:41:54;5.03;;;2.05;;
81868;SDS011;71320;52.252;13.382;2023-08-17T02:46:56;3.92;;;1.73;;
81868;SDS011;71320;52.252;13.382;2023-08-17T02:51:58;2.92;;;1.50;;
81868;SDS011;71320;52.252;13.382;2023-08-17T02:57:00;3.33;;;1.85;;
81868;SDS011;71320;52.252;13.382;2023-08-17T03:02:02;3.25;;;1.52;;
81868;SDS011;71320;52.252;13.382;2023-08-17T03:07:04;3.55;;;1.75;;
81868;SDS011;71320;52.252;13.382;2023-08-17T03:12:07;3.40;;;1.83;;
81868;SDS011;71320;52.252;13.382;2023-08-17T03:17:08;3.75;;;1.33;;
81868;SDS011;71320;52.252;13.382;2023-08-17T03:22:10;2.17;;;1.13;;
81868;SDS011;71320;52.252;13.382;2023-08-17T03:27:13;2.00;;;1.30;;
81868;SDS011;71320;52.252;13.382;2023-08-17T03:32:15;3.08;;;1.42;;
81868;SDS011;71320;52.252;13.382;2023-08-17T03:37:16;3.55;;;1.67;;
81868;SDS011;71320;52.252;13.382;2023-08-17T03:42:20;4.13;;;1.70;;
81868;SDS011;71320;52.252;13.382;2023-08-17T03:47:22;4.38;;;1.80;;
81868;SDS011;71320;52.252;13.382;2023-08-17T03:52:24;3.08;;;1.60;;
81868;SDS011;71320;52.252;13.382;2023-08-17T03:57:27;2.63;;;1.50;;
81868;SDS011;71320;52.252;13.382;2023-08-17T04:02:28;2.83;;;1.48;;
81868;SDS011;71320;52.252;13.382;2023-08-17T04:07:30;7.10;;;1.88;;
81868;SDS011;71320;52.252;13.382;2023-08-17T04:12:33;4.18;;;1.77;;
81868;SDS011;71320;52.252;13.382;2023-08-17T04:17:34;4.07;;;1.70;;
81868;SDS011;71320;52.252;13.382;2023-08-17T04:22:37;3.72;;;1.83;;
81868;SDS011;71320;52.252;13.382;2023-08-17T04:27:40;3.42;;;1.45;;
81868;SDS011;71320;52.252;13.382;2023-08-17T04:32:42;4.55;;;1.77;;
81868;SDS011;71320;52.252;13.382;2023-08-17T04:37:44;2.53;;;1.60;;
81868;SDS011;71320;52.252;13.382;2023-08-17T04:42:49;4.38;;;1.95;;
81868;SDS011;71320;52.252;13.382;2023-08-17T04:47:50;2.63;;;1.65;;
81868;SDS011;71320;52.252;13.382;2023-08-17T04:52:52;3.72;;;1.45;;
81868;SDS011;71320;52.252;13.382;2023-08-17T04:57:55;4.40;;;1.80;;
81868;SDS011;71320;52.252;13.382;2023-08-17T05:02:57;4.18;;;1.83;;
81868;SDS011;71320;52.252;13.382;2023-08-17T05:08:03;3.85;;;1.23;;
81868;SDS011;71320;52.252;13.382;2023-08-17T05:13:06;4.70;;;1.50;;
81868;SDS011;71320;52.252;13.382;2023-08-17T05:18:08;3.50;;;1.58;;
81868;SDS011;71320;52.252;13.382;2023-08-17T05:23:11;5.28;;;1.98;;
81868;SDS011;71320;52.252;13.382;2023-08-17T05:28:14;4.32;;;1.88;;
81868;SDS011;71320;52.252;13.382;2023-08-17T05:33:16;3.90;;;1.90;;
81868;SDS011;71320;52.252;13.382;2023-08-17T05:38:18;4.38;;;1.90;;
81868;SDS011;71320;52.252;13.382;2023-08-17T05:43:21;4.10;;;1.98;;
81868;SDS011;71320;52.252;13.382;2023-08-17T05:48:22;3.58;;;2.00;;
81868;SDS011;71320;52.252;13.382;2023-08-17T05:53:24;7.15;;;2.08;;
81868;SDS011;71320;52.252;13.382;2023-08-17T05:58:27;5.57;;;2.30;;
81868;SDS011;71320;52.252;13.382;2023-08-17T06:03:28;6.45;;;2.28;;
81868;SDS011;71320;52.252;13.382;2023-08-17T06:08:30;6.57;;;2.10;;
81868;SDS011;71320;52.252;13.382;2023-08-17T06:13:33;3.97;;;2.25;;
81868;SDS011;71320;52.252;13.382;2023-08-17T06:18:35;5.97;;;1.90;;
81868;SDS011;71320;52.252;13.382;2023-08-17T06:23:37;2.70;;;2.17;;
81868;SDS011;71320;52.252;13.382;2023-08-17T06:28:40;3.83;;;2.08;;
81868;SDS011;71320;52.252;13.382;2023-08-17T06:33:42;4.57;;;2.20;;
81868;SDS011;71320;52.252;13.382;2023-08-17T06:38:43;6.32;;;2.03;;
81868;SDS011;71320;52.252;13.382;2023-08-17T06:43:46;5.45;;;2.22;;
81868;SDS011;71320;52.252;13.382;2023-08-17T06:48:48;7.13;;;2.50;;
81868;SDS011;71320;52.252;13.382;2023-08-17T06:53:49;4.53;;;1.58;;
81868;SDS011;71320;52.252;13.382;2023-08-17T06:58:52;4.38;;;2.40;;
81868;SDS011;71320;52.252;13.382;2023-08-17T07:03:54;3.10;;;1.92;;
81868;SDS011;71320;52.252;13.382;2023-08-17T07:08:56;2.83;;;2.40;;
81868;SDS011;71320;52.252;13.382;2023-08-17T07:13:59;5.90;;;2.25;;
81868;SDS011;71320;52.252;13.382;2023-08-17T07:19:00;4.05;;;2.10;;
81868;SDS011;71320;52.252;13.382;2023-08-17T07:24:11;5.40;;;2.22;;
81868;SDS011;71320;52.252;13.382;2023-08-17T07:29:15;2.90;;;2.28;;
81868;SDS011;71320;52.252;13.382;2023-08-17T07:34:16;4.50;;;2.20;;
81868;SDS011;71320;52.252;13.382;2023-08-17T07:39:18;3.83;;;2.47;;
81868;SDS011;71320;52.252;13.382;2023-08-17T07:44:22;4.88;;;2.70;;
81868;SDS011;71320;52.252;13.382;2023-08-17T07:49:23;6.20;;;3.13;;
81868;SDS011;71320;52.252;13.382;2023-08-17T07:54:25;5.80;;;2.80;;
81868;SDS011;71320;52.252;13.382;2023-08-17T07:59:28;4.00;;;2.47;;
81868;SDS011;71320;52.252;13.382;2023-08-17T08:04:30;8.05;;;3.15;;
81868;SDS011;71320;52.252;13.382;2023-08-17T08:09:31;5.25;;;3.33;;
81868;SDS011;71320;52.252;13.382;2023-08-17T08:14:34;4.75;;;3.55;;
81868;SDS011;71320;52.252;13.382;2023-08-17T08:19:36;7.82;;;3.75;;
81868;SDS011;71320;52.252;13.382;2023-08-17T08:24:37;6.78;;;4.13;;
81868;SDS011;71320;52.252;13.382;2023-08-17T08:29:42;6.72;;;4.82;;
81868;SDS011;71320;52.252;13.382;2023-08-17T08:34:44;5.30;;;3.72;;
81868;SDS011;71320;52.252;13.382;2023-08-17T08:39:48;7.15;;;4.47;;
81868;SDS011;71320;52.252;13.382;2023-08-17T08:44:52;5.40;;;3.40;;
81868;SDS011;71320;52.252;13.382;2023-08-17T08:49:57;4.00;;;3.40;;
81868;SDS011;71320;52.252;13.382;2023-08-17T08:55:09;5.97;;;3.72;;
81868;SDS011;71320;52.252;13.382;2023-08-17T09:00:14;6.05;;;3.67;;
81868;SDS011;71320;52.252;13.382;2023-08-17T09:05:17;4.40;;;3.92;;
81868;SDS011;71320;52.252;13.382;2023-08-17T09:10:19;4.90;;;3.63;;
81868;SDS011;71320;52.252;13.382;2023-08-17T09:15:22;6.45;;;4.47;;
81868;SDS011;71320;52.252;13.382;2023-08-17T09:20:34;5.78;;;4.70;;
81868;SDS011;71320;52.252;13.382;2023-08-17T09:25:37;9.13;;;5.78;;
81868;SDS011;71320;52.252;13.382;2023-08-17T09:30:50;5.57;;;4.32;;
81868;SDS011;71320;52.252;13.382;2023-08-17T09:35:53;7.60;;;5.25;;
81868;SDS011;71320;52.252;13.382;2023-08-17T09:40:56;6.18;;;4.63;;
81868;SDS011;71320;52.252;13.382;2023-08-17T09:46:00;8.85;;;4.47;;
81868;SDS011;71320;52.252;13.382;2023-08-17T09:51:03;5.53;;;3.97;;
81868;SDS011;71320;52.252;13.382;2023-08-17T09:56:06;4.60;;;3.33;;
81868;SDS011;71320;52.252;13.382;2023-08-17T10:01:12;5.72;;;3.15;;
81868;SDS011;71320;52.252;13.382;2023-08-17T10:06:14;8.20;;;4.05;;
81868;SDS011;71320;52.252;13.382;2023-08-17T10:11:20;4.63;;;3.42;;
81868;SDS011;71320;52.252;13.382;2023-08-17T10:16:26;5.57;;;3.65;;
81868;SDS011;71320;52.252;13.382;2023-08-17T10:21:31;6.15;;;3.85;;
81868;SDS011;71320;52.252;13.382;2023-08-17T10:26:39;4.68;;;3.78;;
81868;SDS011;71320;52.252;13.382;2023-08-17T10:31:44;4.75;;;4.07;;
81868;SDS011;71320;52.252;13.382;2023-08-17T10:36:46;6.70;;;3.88;;
81868;SDS011;71320;52.252;13.382;2023-08-17T10:41:49;5.57;;;3.90;;
81868;SDS011;71320;52.252;13.382;2023-08-17T10:46:53;6.40;;;4.43;;
81868;SDS011;71320;52.252;13.382;2023-08-17T10:52:04;5.97;;;4.20;;
81868;SDS011;71320;52.252;13.382;2023-08-17T11:02:36;6.30;;;4.78;;
81868;SDS011;71320;52.252;13.382;2023-08-17T11:07:38;9.80;;;5.07;;
81868;SDS011;71320;52.252;13.382;2023-08-17T11:12:41;7.60;;;5.18;;
81868;SDS011;71320;52.252;13.382;2023-08-17T11:17:44;5.65;;;4.60;;
81868;SDS011;71320;52.252;13.382;2023-08-17T11:22:46;4.63;;;4.22;;
81868;SDS011;71320;52.252;13.382;2023-08-17T11:27:47;6.30;;;4.30;;
81868;SDS011;71320;52.252;13.382;2023-08-17T11:32:51;6.45;;;4.63;;
81868;SDS011;71320;52.252;13.382;2023-08-17T11:37:54;7.05;;;4.32;;
81868;SDS011;71320;52.252;13.382;2023-08-17T11:42:55;6.35;;;4.22;;
81868;SDS011;71320;52.252;13.382;2023-08-17T11:47:58;5.32;;;4.80;;
81868;SDS011;71320;52.252;13.382;2023-08-17T11:53:00;5.15;;;4.30;;
81868;SDS011;71320;52.252;13.382;2023-08-17T11:58:02;6.57;;;4.18;;
81868;SDS011;71320;52.252;13.382;2023-08-17T12:03:05;6.32;;;5.05;;
81868;SDS011;71320;52.252;13.382;2023-08-17T12:08:07;5.22;;;4.75;;
81868;SDS011;71320;52.252;13.382;2023-08-17T12:13:10;9.93;;;4.82;;
81868;SDS011;71320;52.252;13.382;2023-08-17T12:18:15;8.20;;;5.70;;
81868;SDS011;71320;52.252;13.382;2023-08-17T12:23:17;5.22;;;4.63;;
81868;SDS011;71320;52.252;13.382;2023-08-17T12:28:18;8.23;;;5.35;;
81868;SDS011;71320;52.252;13.382;2023-08-17T12:33:21;7.55;;;5.70;;
81868;SDS011;71320;52.252;13.382;2023-08-17T12:38:23;7.50;;;5.57;;
81868;SDS011;71320;52.252;13.382;2023-08-17T12:43:25;9.18;;;5.40;;
81868;SDS011;71320;52.252;13.382;2023-08-17T12:48:28;6.38;;;5.63;;
81868;SDS011;71320;52.252;13.382;2023-08-17T12:53:30;7.32;;;5.50;;
81868;SDS011;71320;52.252;13.382;2023-08-17T12:58:31;7.22;;;6.00;;
81868;SDS011;71320;52.252;13.382;2023-08-17T13:03:34;8.05;;;6.65;;
81868;SDS011;71320;52.252;13.382;2023-08-17T13:08:36;7.40;;;6.05;;
81868;SDS011;71320;52.252;13.382;2023-08-17T13:13:37;9.40;;;6.65;;
81868;SDS011;71320;52.252;13.382;2023-08-17T13:18:40;10.15;;;6.10;;
81868;SDS011;71320;52.252;13.382;2023-08-17T13:23:42;6.85;;;6.15;;
81868;SDS011;71320;52.252;13.382;2023-08-17T13:28:44;8.52;;;6.50;;
81868;SDS011;71320;52.252;13.382;2023-08-17T13:33:46;7.32;;;6.65;;
81868;SDS011;71320;52.252;13.382;2023-08-17T13:38:48;7.45;;;6.63;;
81868;SDS011;71320;52.252;13.382;2023-08-17T13:43:50;6.95;;;6.25;;
81868;SDS011;71320;52.252;13.382;2023-08-17T13:48:53;7.85;;;6.13;;
81868;SDS011;71320;52.252;13.382;2023-08-17T13:53:54;6.40;;;5.72;;
81868;SDS011;71320;52.252;13.382;2023-08-17T13:58:56;6.47;;;5.88;;
81868;SDS011;71320;52.252;13.382;2023-08-17T14:03:59;6.15;;;5.47;;
81868;SDS011;71320;52.252;13.382;2023-08-17T14:09:03;7.05;;;6.10;;
81868;SDS011;71320;52.252;13.382;2023-08-17T14:14:05;6.57;;;5.97;;
81868;SDS011;71320;52.252;13.382;2023-08-17T14:19:08;6.10;;;5.50;;
81868;SDS011;71320;52.252;13.382;2023-08-17T14:24:09;6.90;;;6.20;;
81868;SDS011;71320;52.252;13.382;2023-08-17T14:29:11;7.22;;;6.22;;
81868;SDS011;71320;52.252;13.382;2023-08-17T14:34:14;6.93;;;6.22;;
81868;SDS011;71320;52.252;13.382;2023-08-17T14:39:16;6.97;;;6.03;;
81868;SDS011;71320;52.252;13.382;2023-08-17T14:44:17;6.97;;;6.28;;
81868;SDS011;71320;52.252;13.382;2023-08-17T14:49:20;5.97;;;5.45;;
81868;SDS011;71320;52.252;13.382;2023-08-17T14:54:22;8.15;;;6.00;;
81868;SDS011;71320;52.252;13.382;2023-08-17T14:59:25;8.05;;;6.72;;
81868;SDS011;71320;52.252;13.382;2023-08-17T15:04:28;8.23;;;6.55;;
81868;SDS011;71320;52.252;13.382;2023-08-17T15:09:29;6.47;;;5.72;;
81868;SDS011;71320;52.252;13.382;2023-08-17T15:14:31;7.93;;;6.35;;
81868;SDS011;71320;52.252;13.382;2023-08-17T15:19:34;7.65;;;6.35;;
81868;SDS011;71320;52.252;13.382;2023-08-17T15:24:35;7.38;;;6.05;;
81868;SDS011;71320;52.252;13.382;2023-08-17T15:29:37;7.00;;;6.32;;
81868;SDS011;71320;52.252;13.382;2023-08-17T15:34:41;11.20;;;6.25;;
81868;SDS011;71320;52.252;13.382;2023-08-17T15:39:42;7.78;;;5.75;;
81868;SDS011;71320;52.252;13.382;2023-08-17T15:44:44;11.32;;;6.38;;
81868;SDS011;71320;52.252;13.382;2023-08-17T15:49:47;7.05;;;6.35;;
81868;SDS011;71320;52.252;13.382;2023-08-17T15:54:49;8.27;;;6.57;;
81868;SDS011;71320;52.252;13.382;2023-08-17T15:59:50;6.93;;;6.22;;
81868;SDS011;71320;52.252;13.382;2023-08-17T16:04:53;6.97;;;6.05;;
81868;SDS011;71320;52.252;13.382;2023-08-17T16:09:55;7.63;;;6.22;;
81868;SDS011;71320;52.252;13.382;2023-08-17T16:14:57;9.55;;;6.32;;
81868;SDS011;71320;52.252;13.382;2023-08-17T16:19:59;8.02;;;6.18;;
81868;SDS011;71320;52.252;13.382;2023-08-17T16:25:01;8.13;;;5.97;;
81868;SDS011;71320;52.252;13.382;2023-08-17T16:30:03;7.32;;;5.72;;
81868;SDS011;71320;52.252;13.382;2023-08-17T16:35:07;7.80;;;5.95;;
81868;SDS011;71320;52.252;13.382;2023-08-17T16:40:09;7.13;;;5.97;;
81868;SDS011;71320;52.252;13.382;2023-08-17T16:45:11;6.65;;;5.82;;
81868;SDS011;71320;52.252;13.382;2023-08-17T16:50:14;7.60;;;5.72;;
81868;SDS011;71320;52.252;13.382;2023-08-17T16:55:15;6.80;;;5.93;;
81868;SDS011;71320;52.252;13.382;2023-08-17T17:00:17;7.90;;;7.10;;
81868;SDS011;71320;52.252;13.382;2023-08-17T17:05:20;8.23;;;5.95;;
81868;SDS011;71320;52.252;13.382;2023-08-17T17:10:22;7.43;;;5.90;;
81868;SDS011;71320;52.252;13.382;2023-08-17T17:15:23;8.10;;;6.30;;
81868;SDS011;71320;52.252;13.382;2023-08-17T17:20:26;7.65;;;5.63;;
81868;SDS011;71320;52.252;13.382;2023-08-17T17:25:28;6.28;;;5.68;;
81868;SDS011;71320;52.252;13.382;2023-08-17T17:30:30;6.03;;;5.43;;
81868;SDS011;71320;52.252;13.382;2023-08-17T17:35:32;7.63;;;5.63;;
81868;SDS011;71320;52.252;13.382;2023-08-17T17:40:34;5.50;;;4.90;;
81868;SDS011;71320;52.252;13.382;2023-08-17T17:45:36;6.55;;;5.18;;
81868;SDS011;71320;52.252;13.382;2023-08-17T17:50:38;5.57;;;5.07;;
81868;SDS011;71320;52.252;13.382;2023-08-17T17:55:40;5.20;;;4.70;;
81868;SDS011;71320;52.252;13.382;2023-08-17T18:00:42;5.78;;;4.93;;
81868;SDS011;71320;52.252;13.382;2023-08-17T18:05:46;5.57;;;4.32;;
81868;SDS011;71320;52.252;13.382;2023-08-17T18:10:48;6.95;;;4.68;;
81868;SDS011;71320;52.252;13.382;2023-08-17T18:15:49;4.68;;;4.28;;
81868;SDS011;71320;52.252;13.382;2023-08-17T18:20:52;5.22;;;4.72;;
81868;SDS011;71320;52.252;13.382;2023-08-17T18:25:54;4.97;;;4.28;;
81868;SDS011;71320;52.252;13.382;2023-08-17T18:30:55;5.13;;;4.07;;
81868;SDS011;71320;52.252;13.382;2023-08-17T18:35:59;5.38;;;4.20;;
81868;SDS011;71320;52.252;13.382;2023-08-17T18:41:07;6.43;;;4.22;;
81868;SDS011;71320;52.252;13.382;2023-08-17T18:46:09;5.13;;;4.38;;
81868;SDS011;71320;52.252;13.382;2023-08-17T18:51:12;6.60;;;4.10;;
81868;SDS011;71320;52.252;13.382;2023-08-17T18:56:14;4.40;;;4.00;;
81868;SDS011;71320;52.252;13.382;2023-08-17T19:01:15;5.32;;;4.53;;
81868;SDS011;71320;52.252;13.382;2023-08-17T19:06:18;4.78;;;4.18;;
81868;SDS011;71320;52.252;13.382;2023-08-17T19:11:20;6.30;;;4.15;;
81868;SDS011;71320;52.252;13.382;2023-08-17T19:16:22;4.07;;;3.70;;
81868;SDS011;71320;52.252;13.382;2023-08-17T19:21:25;4.00;;;3.60;;
81868;SDS011;71320;52.252;13.382;2023-08-17T19:26:27;5.30;;;3.72;;
81868;SDS011;71320;52.252;13.382;2023-08-17T19:31:28;4.50;;;4.10;;
81868;SDS011;71320;52.252;13.382;2023-08-17T19:36:33;5.55;;;4.22;;
81868;SDS011;71320;52.252;13.382;2023-08-17T19:41:35;5.07;;;3.67;;
81868;SDS011;71320;52.252;13.382;2023-08-17T19:46:36;4.28;;;3.88;;
81868;SDS011;71320;52.252;13.382;2023-08-17T19:51:40;4.63;;;3.88;;
81868;SDS011;71320;52.252;13.382;2023-08-17T19:56:42;4.72;;;4.10;;
81868;SDS011;71320;52.252;13.382;2023-08-17T20:01:45;4.93;;;3.92;;
81868;SDS011;71320;52.252;13.382;2023-08-17T20:06:49;4.32;;;3.67;;
81868;SDS011;71320;52.252;13.382;2023-08-17T20:11:51;4.47;;;4.10;;
81868;SDS011;71320;52.252;13.382;2023-08-17T20:16:53;4.00;;;3.70;;
81868;SDS011;71320;52.252;13.382;2023-08-17T20:21:56;3.80;;;3.50;;
81868;SDS011;71320;52.252;13.382;2023-08-17T20:26:58;4.07;;;3.50;;
81868;SDS011;71320;52.252;13.382;2023-08-17T20:31:59;3.72;;;3.42;;
81868;SDS011;71320;52.252;13.382;2023-08-17T20:37:02;7.28;;;3.58;;
81868;SDS011;71320;52.252;13.382;2023-08-17T20:42:07;6.40;;;3.60;;
81868;SDS011;71320;52.252;13.382;2023-08-17T20:47:09;4.95;;;3.95;;
81868;SDS011;71320;52.252;13.382;2023-08-17T20:52:12;4.13;;;3.72;;
81868;SDS011;71320;52.252;13.382;2023-08-17T20:57:15;3.80;;;3.40;;
81868;SDS011;71320;52.252;13.382;2023-08-17T21:02:16;4.97;;;3.22;;
81868;SDS011;71320;52.252;13.382;2023-08-17T21:07:19;3.75;;;3.10;;
81868;SDS011;71320;52.252;13.382;2023-08-17T21:12:21;4.13;;;3.00;;
81868;SDS011;71320;52.252;13.382;2023-08-17T21:17:22;3.50;;;3.20;;
81868;SDS011;71320;52.252;13.382;2023-08-17T21:22:27;3.88;;;2.85;;
81868;SDS011;71320;52.252;13.382;2023-08-17T21:27:29;4.43;;;2.92;;
81868;SDS011;71320;52.252;13.382;2023-08-17T21:32:30;4.95;;;3.13;;
81868;SDS011;71320;52.252;13.382;2023-08-17T21:37:33;3.65;;;2.90;;
81868;SDS011;71320;52.252;13.382;2023-08-17T21:42:35;5.13;;;3.30;;
81868;SDS011;71320;52.252;13.382;2023-08-17T21:47:37;4.20;;;2.92;;
81868;SDS011;71320;52.252;13.382;2023-08-17T21:52:40;4.47;;;3.10;;
81868;SDS011;71320;52.252;13.382;2023-08-17T21:57:42;7.40;;;3.13;;
81868;SDS011;71320;52.252;13.382;2023-08-17T22:02:44;3.45;;;2.75;;
81868;SDS011;71320;52.252;13.382;2023-08-17T22:07:47;4.32;;;3.35;;
81868;SDS011;71320;52.252;13.382;2023-08-17T22:12:48;3.38;;;2.65;;
81868;SDS011;71320;52.252;13.382;2023-08-17T22:17:50;4.30;;;2.60;;
81868;SDS011;71320;52.252;13.382;2023-08-17T22:22:53;4.22;;;3.15;;
81868;SDS011;71320;52.252;13.382;2023-08-17T22:27:55;6.00;;;2.65;;
81868;SDS011;71320;52.252;13.382;2023-08-17T22:32:56;7.03;;;3.38;;
81868;SDS011;71320;52.252;13.382;2023-08-17T22:37:59;3.95;;;2.97;;
81868;SDS011;71320;52.252;13.382;2023-08-17T22:43:01;5.10;;;3.00;;
81868;SDS011;71320;52.252;13.382;2023-08-17T22:48:03;5.78;;;3.10;;
81868;SDS011;71320;52.252;13.382;2023-08-17T22:53:06;4.35;;;2.70;;
81868;SDS011;71320;52.252;13.382;2023-08-17T22:58:07;5.30;;;2.67;;
81868;SDS011;71320;52.252;13.382;2023-08-17T23:03:09;3.47;;;3.03;;
81868;SDS011;71320;52.252;13.382;2023-08-17T23:08:12;4.32;;;2.97;;
81868;SDS011;71320;52.252;13.382;2023-08-17T23:13:14;3.30;;;2.60;;
81868;SDS011;71320;52.252;13.382;2023-08-17T23:18:15;3.78;;;2.65;;
81868;SDS011;71320;52.252;13.382;2023-08-17T23:23:18;3.50;;;2.75;;
81868;SDS011;71320;52.252;13.382;2023-08-17T23:28:20;6.15;;;3.60;;
81868;SDS011;71320;52.252;13.382;2023-08-17T23:33:21;3.00;;;2.60;;
81868;SDS011;71320;52.252;13.382;2023-08-17T23:38:24;2.50;;;2.30;;
81868;SDS011;71320;52.252;13.382;2023-08-17T23:43:26;4.68;;;2.75;;
81868;SDS011;71320;52.252;13.382;2023-08-17T23:48:27;3.92;;;3.00;;
81868;SDS011;71320;52.252;13.382;2023-08-17T23:53:30;3.05;;;2.70;;
81868;SDS011;71320;52.252;13.382;2023-08-17T23:58:32;3.92;;;2.40;;
